Time;durP1;ratioP1;P1;durP2;ratioP2;P2;SDS_P1;SDS_P2;PMS_P1;PMS_P2;Temp;Humidity;BMP_temperature;BMP_pressure;BME280_temperature;BME280_humidity;BME280_pressure;Samples;Min_cycle;Max_cycle;Signal;HPM_P1;HPM_P2
2024/01/07 00:00:07;;;;;;;4.80;3.03;;;23.10;42.00;;;;;;6207569;27;80221;-49
2024/01/07 00:03:08;;;;;;;5.75;3.83;;;23.00;42.00;;;;;;6204442;27;82968;-51
2024/01/07 00:06:08;;;;;;;5.35;3.25;;;23.10;42.10;;;;;;6214201;27;80722;-53
2024/01/07 00:09:09;;;;;;;3.35;2.63;;;23.00;41.90;;;;;;6206112;27;81191;-50
2024/01/07 00:12:09;;;;;;;4.68;2.95;;;23.00;42.50;;;;;;6204234;27;81382;-53
2024/01/07 00:15:10;;;;;;;4.15;3.40;;;23.00;41.90;;;;;;6214754;27;80715;-48
2024/01/07 00:18:10;;;;;;;5.72;3.35;;;23.00;41.60;;;;;;6226039;27;81719;-65
2024/01/07 00:21:11;;;;;;;4.72;3.28;;;23.00;41.80;;;;;;6216221;27;80312;-67
2024/01/07 00:24:11;;;;;;;4.47;3.08;;;23.00;41.70;;;;;;6226987;27;80607;-65
2024/01/07 00:27:12;;;;;;;3.53;2.58;;;23.00;41.40;;;;;;6226002;27;80534;-67
2024/01/07 00:30:12;;;;;;;5.55;3.40;;;23.00;41.60;;;;;;6225351;27;80531;-65
2024/01/07 00:33:13;;;;;;;4.53;3.00;;;23.00;41.50;;;;;;6226567;27;81429;-66
2024/01/07 00:36:13;;;;;;;3.90;3.20;;;23.00;41.30;;;;;;6225692;27;81367;-55
2024/01/07 00:39:14;;;;;;;4.55;2.88;;;23.00;41.30;;;;;;6224216;27;87905;-56
2024/01/07 00:42:14;;;;;;;5.28;3.13;;;23.00;41.60;;;;;;6223922;27;83215;-57
2024/01/07 00:45:15;;;;;;;4.15;2.83;;;23.00;41.40;;;;;;6226231;27;80331;-55
2024/01/07 00:48:15;;;;;;;4.45;2.90;;;23.00;42.00;;;;;;6224963;27;81499;-54
2024/01/07 00:51:16;;;;;;;4.38;3.03;;;23.00;41.90;;;;;;6221935;27;80650;-53
2024/01/07 00:54:16;;;;;;;5.20;2.95;;;23.00;41.90;;;;;;6224577;27;80634;-63
2024/01/07 00:57:17;;;;;;;4.20;2.83;;;23.00;42.00;;;;;;6225191;27;82203;-63
2024/01/07 01:00:17;;;;;;;4.25;2.35;;;23.00;41.80;;;;;;6225357;27;82286;-63
2024/01/07 01:03:18;;;;;;;3.35;2.67;;;23.00;41.90;;;;;;6226483;27;80977;-64
2024/01/07 01:06:19;;;;;;;5.43;2.90;;;23.00;41.80;;;;;;6228293;27;81166;-63
2024/01/07 01:09:20;;;;;;;4.20;3.15;;;23.00;41.80;;;;;;6225949;27;80859;-64
2024/01/07 01:12:20;;;;;;;4.95;2.88;;;23.00;41.70;;;;;;6224178;27;81298;-63
2024/01/07 01:15:21;;;;;;;2.53;2.10;;;23.00;41.90;;;;;;6216862;27;82010;-64
2024/01/07 01:18:22;;;;;;;3.22;2.33;;;23.00;41.80;;;;;;6205588;27;80976;-65
2024/01/07 01:21:22;;;;;;;3.60;2.50;;;23.00;41.90;;;;;;6225882;27;82148;-64
2024/01/07 01:24:23;;;;;;;3.08;2.10;;;23.00;41.90;;;;;;6225391;27;81433;-64
2024/01/07 01:27:23;;;;;;;4.75;2.60;;;23.00;42.10;;;;;;6227815;27;81383;-63
2024/01/07 01:30:24;;;;;;;4.55;2.55;;;23.00;42.30;;;;;;6213143;27;83701;-54
2024/01/07 01:33:24;;;;;;;3.42;2.28;;;23.00;42.90;;;;;;6225404;27;80954;-56
2024/01/07 01:36:25;;;;;;;4.32;2.78;;;23.00;42.20;;;;;;6217507;28;81997;-57
2024/01/07 01:39:25;;;;;;;4.43;3.00;;;23.00;42.60;;;;;;6228462;27;81778;-58
2024/01/07 01:42:26;;;;;;;3.15;2.50;;;22.90;41.90;;;;;;6225005;28;82235;-58
2024/01/07 01:45:26;;;;;;;2.70;2.35;;;22.90;42.30;;;;;;6222730;27;81207;-57
2024/01/07 01:48:28;;;;;;;3.55;2.45;;;22.90;42.40;;;;;;6224856;27;80681;-64
2024/01/07 01:51:28;;;;;;;4.30;2.97;;;22.90;41.80;;;;;;6224605;27;80968;-66
2024/01/07 01:54:28;;;;;;;3.70;2.72;;;22.90;41.10;;;;;;6223980;27;80736;-66
2024/01/07 01:57:29;;;;;;;3.38;2.63;;;22.90;40.90;;;;;;6222869;27;81276;-66
2024/01/07 02:00:29;;;;;;;3.58;2.63;;;22.90;41.00;;;;;;6224225;27;82754;-68
2024/01/07 02:03:30;;;;;;;2.83;1.92;;;22.90;41.00;;;;;;6225318;27;82989;-67
2024/01/07 02:06:31;;;;;;;3.17;2.50;;;22.90;41.30;;;;;;6225613;27;80275;-56
2024/01/07 02:09:31;;;;;;;4.50;2.53;;;22.90;41.50;;;;;;6225678;27;80547;-58
2024/01/07 02:12:32;;;;;;;4.45;2.33;;;22.90;41.30;;;;;;6217955;27;80580;-56
2024/01/07 02:15:33;;;;;;;3.53;2.45;;;22.90;41.10;;;;;;6223845;27;81532;-58
2024/01/07 02:18:34;;;;;;;4.53;2.88;;;22.90;41.20;;;;;;6224257;27;81027;-59
2024/01/07 02:21:34;;;;;;;4.53;2.80;;;22.90;41.10;;;;;;6224709;27;81868;-58
2024/01/07 02:24:35;;;;;;;2.97;2.20;;;22.90;41.30;;;;;;6224032;27;83299;-57
2024/01/07 02:27:35;;;;;;;4.80;3.10;;;22.80;41.00;;;;;;6223371;27;82318;-59
2024/01/07 02:30:36;;;;;;;3.60;2.20;;;22.90;41.00;;;;;;6224741;27;82750;-55
2024/01/07 02:33:36;;;;;;;3.35;2.47;;;22.90;41.30;;;;;;6211659;27;80499;-55
2024/01/07 02:36:37;;;;;;;3.72;2.13;;;22.90;41.20;;;;;;6226470;27;82916;-55
2024/01/07 02:39:37;;;;;;;3.80;2.28;;;22.80;41.00;;;;;;6224920;27;80523;-57
2024/01/07 02:42:38;;;;;;;3.63;2.33;;;22.80;40.80;;;;;;6215301;27;80267;-48
2024/01/07 02:45:38;;;;;;;2.58;2.22;;;22.80;40.80;;;;;;6199813;27;80411;-55
2024/01/07 02:48:39;;;;;;;4.38;2.58;;;22.80;40.60;;;;;;6199566;28;80223;-50
2024/01/07 02:51:39;;;;;;;3.35;2.28;;;22.80;40.70;;;;;;6200701;28;80497;-54
2024/01/07 02:54:40;;;;;;;2.95;2.20;;;22.80;41.00;;;;;;6204316;27;82069;-53
2024/01/07 02:57:40;;;;;;;4.18;2.42;;;22.80;41.00;;;;;;6201351;27;80672;-53
2024/01/07 03:00:41;;;;;;;3.70;2.17;;;22.80;40.90;;;;;;6199607;27;80355;-57
2024/01/07 03:03:41;;;;;;;3.70;2.60;;;22.80;40.80;;;;;;6218535;27;81087;-56
2024/01/07 03:06:42;;;;;;;3.67;2.17;;;22.80;40.80;;;;;;6215553;27;80380;-56
2024/01/07 03:09:42;;;;;;;3.53;2.10;;;22.80;40.50;;;;;;6203365;28;80864;-58
2024/01/07 03:12:43;;;;;;;3.67;2.30;;;22.80;40.20;;;;;;6199426;27;80554;-58
2024/01/07 03:15:43;;;;;;;2.28;2.03;;;22.80;40.20;;;;;;6205554;27;80506;-58
2024/01/07 03:18:44;;;;;;;3.53;2.30;;;22.80;40.10;;;;;;6213272;28;83210;-59
2024/01/07 03:21:44;;;;;;;4.00;2.63;;;22.80;40.20;;;;;;6229408;27;80401;-67
2024/01/07 03:24:45;;;;;;;3.33;2.33;;;22.80;40.30;;;;;;6228629;27;80861;-68
2024/01/07 03:27:45;;;;;;;3.28;2.13;;;22.80;40.20;;;;;;6215657;27;80407;-67
2024/01/07 03:30:45;;;;;;;3.40;2.00;;;22.80;40.50;;;;;;6205279;27;82852;-68
2024/01/07 03:33:46;;;;;;;2.72;2.10;;;22.80;40.50;;;;;;6227578;27;80344;-67
2024/01/07 03:36:46;;;;;;;2.38;1.85;;;22.80;40.40;;;;;;6229812;27;80915;-68
2024/01/07 03:39:47;;;;;;;3.47;2.00;;;22.80;40.50;;;;;;6214963;27;80410;-59
2024/01/07 03:42:47;;;;;;;2.70;2.30;;;22.80;40.40;;;;;;6228499;27;81181;-59
2024/01/07 03:45:49;;;;;;;3.75;2.33;;;22.80;40.30;;;;;;6215329;27;80353;-58
2024/01/07 03:48:50;;;;;;;3.45;2.03;;;22.80;40.30;;;;;;6228628;27;80966;-58
2024/01/07 03:51:50;;;;;;;3.53;1.98;;;22.80;40.20;;;;;;6227474;27;81201;-58
2024/01/07 03:54:51;;;;;;;2.95;1.95;;;22.80;40.40;;;;;;6225644;27;81289;-59
2024/01/07 03:57:51;;;;;;;2.00;1.60;;;22.70;40.50;;;;;;6217376;27;80417;-68
2024/01/07 04:00:52;;;;;;;2.22;1.65;;;22.80;40.50;;;;;;6230531;27;80705;-67
2024/01/07 04:03:52;;;;;;;2.88;2.03;;;22.70;41.00;;;;;;6221802;27;80930;-68
2024/01/07 04:06:53;;;;;;;3.28;2.10;;;22.70;40.70;;;;;;6217869;27;83265;-67
2024/01/07 04:09:53;;;;;;;3.22;1.88;;;22.70;39.80;;;;;;6227790;27;80309;-66
2024/01/07 04:12:53;;;;;;;2.38;1.98;;;22.70;40.10;;;;;;6228192;27;80877;-67
2024/01/07 04:15:54;;;;;;;2.67;2.05;;;22.70;40.00;;;;;;6229371;27;80547;-67
2024/01/07 04:18:54;;;;;;;3.35;1.95;;;22.80;40.00;;;;;;6223170;27;80476;-67
2024/01/07 04:21:55;;;;;;;2.13;1.70;;;22.80;39.00;;;;;;6227354;27;80956;-65
2024/01/07 04:24:55;;;;;;;3.13;1.95;;;22.80;39.40;;;;;;6213788;27;80533;-65
2024/01/07 04:27:56;;;;;;;3.33;2.10;;;22.80;39.50;;;;;;6226761;27;81679;-64
2024/01/07 04:30:56;;;;;;;2.40;1.70;;;22.90;39.00;;;;;;6216099;27;80572;-66
2024/01/07 04:33:57;;;;;;;2.65;1.70;;;22.90;38.30;;;;;;6204237;27;81611;-64
2024/01/07 04:36:57;;;;;;;3.15;2.17;;;22.90;38.80;;;;;;6217241;27;80576;-66
2024/01/07 04:39:58;;;;;;;2.22;1.85;;;22.90;38.10;;;;;;6216092;27;80349;-66
2024/01/07 04:42:58;;;;;;;3.78;2.30;;;23.00;38.00;;;;;;6208486;27;81054;-64
2024/01/07 04:45:59;;;;;;;3.08;2.10;;;23.00;38.20;;;;;;6217191;27;80810;-61
2024/01/07 04:48:59;;;;;;;3.30;2.10;;;23.00;37.80;;;;;;6204624;27;80725;-65
2024/01/07 04:51:59;;;;;;;2.40;1.73;;;23.00;37.70;;;;;;6208974;27;80373;-58
2024/01/07 04:55:00;;;;;;;2.13;1.63;;;23.10;37.80;;;;;;6215065;27;80919;-59
2024/01/07 04:58:01;;;;;;;2.13;1.80;;;23.10;37.60;;;;;;6203853;27;80536;-57
2024/01/07 05:01:01;;;;;;;2.25;1.60;;;23.10;37.50;;;;;;6210397;27;81228;-59
2024/01/07 05:04:02;;;;;;;2.25;1.65;;;23.10;37.60;;;;;;6203131;27;81021;-59
2024/01/07 05:07:02;;;;;;;2.03;1.60;;;23.10;37.70;;;;;;6213308;27;81313;-58
2024/01/07 05:10:03;;;;;;;2.30;1.90;;;23.20;37.60;;;;;;6209828;27;80382;-63
2024/01/07 05:13:05;;;;;;;2.70;1.85;;;23.20;37.60;;;;;;6216584;27;80526;-67
2024/01/07 05:16:06;;;;;;;2.63;2.17;;;23.20;37.60;;;;;;6222665;27;81273;-68
2024/01/07 05:19:06;;;;;;;3.45;2.00;;;23.20;37.60;;;;;;6222015;27;83874;-68
2024/01/07 05:22:07;;;;;;;2.50;1.63;;;23.20;37.60;;;;;;6218823;27;80341;-67
2024/01/07 05:25:08;;;;;;;1.88;1.40;;;23.20;37.80;;;;;;6201077;27;80585;-65
2024/01/07 05:28:08;;;;;;;2.58;1.77;;;23.20;37.60;;;;;;6212679;27;80944;-65
2024/01/07 05:31:08;;;;;;;2.42;1.60;;;23.20;37.70;;;;;;6224480;27;80747;-64
2024/01/07 05:34:09;;;;;;;2.38;1.80;;;23.20;37.80;;;;;;6216870;27;81099;-63
2024/01/07 05:37:10;;;;;;;3.40;2.17;;;23.20;37.90;;;;;;6218073;27;83032;-65
2024/01/07 05:40:10;;;;;;;3.65;2.28;;;23.30;37.70;;;;;;6213140;27;81320;-64
2024/01/07 05:43:11;;;;;;;3.95;1.73;;;23.20;37.70;;;;;;6222582;27;81016;-64
2024/01/07 05:46:12;;;;;;;2.60;1.83;;;23.30;37.70;;;;;;6213108;27;81609;-65
2024/01/07 05:49:12;;;;;;;2.40;1.48;;;23.30;37.60;;;;;;6209023;27;80962;-64
2024/01/07 05:52:13;;;;;;;3.45;2.10;;;23.30;37.90;;;;;;6217964;27;80829;-61
2024/01/07 05:55:13;;;;;;;2.42;1.58;;;23.30;37.70;;;;;;6206397;27;83067;-63
2024/01/07 05:58:14;;;;;;;2.80;1.98;;;23.30;37.60;;;;;;6205289;27;80927;-62
2024/01/07 06:01:14;;;;;;;4.22;2.05;;;23.30;37.90;;;;;;6216540;27;80516;-62
2024/01/07 06:04:15;;;;;;;2.50;1.95;;;23.30;38.20;;;;;;6211619;27;81454;-62
2024/01/07 06:07:15;;;;;;;2.35;2.05;;;23.30;37.90;;;;;;6208558;28;80718;-58
2024/01/07 06:10:16;;;;;;;1.90;1.55;;;23.20;38.10;;;;;;6208339;27;80775;-59
2024/01/07 06:13:16;;;;;;;3.13;2.20;;;23.20;38.10;;;;;;6215092;27;80316;-58
2024/01/07 06:16:17;;;;;;;2.15;1.60;;;23.20;38.30;;;;;;6216414;27;80837;-59
2024/01/07 06:19:17;;;;;;;1.95;1.63;;;23.20;38.40;;;;;;6212835;27;81687;-58
2024/01/07 06:22:18;;;;;;;2.30;1.63;;;23.20;38.30;;;;;;6204064;27;81615;-58
2024/01/07 06:25:18;;;;;;;2.47;1.60;;;23.20;38.10;;;;;;6199923;27;80423;-57
2024/01/07 06:28:19;;;;;;;2.38;1.80;;;23.20;37.80;;;;;;6200503;27;80560;-59
2024/01/07 06:31:19;;;;;;;2.40;1.83;;;23.20;37.80;;;;;;6215101;27;84639;-58
2024/01/07 06:34:20;;;;;;;2.15;1.30;;;23.10;37.80;;;;;;6225781;27;80609;-56
2024/01/07 06:37:21;;;;;;;2.38;1.40;;;23.10;37.70;;;;;;6225176;27;80351;-57
2024/01/07 06:40:22;;;;;;;2.83;1.60;;;23.10;37.70;;;;;;6225493;27;80413;-57
2024/01/07 06:43:23;;;;;;;3.67;2.00;;;23.00;37.60;;;;;;6225122;27;80908;-58
2024/01/07 06:46:23;;;;;;;2.58;1.83;;;23.00;37.30;;;;;;6224751;27;80300;-58
2024/01/07 06:49:24;;;;;;;3.33;1.88;;;23.00;36.80;;;;;;6224455;27;80725;-58
2024/01/07 06:52:24;;;;;;;2.25;1.75;;;23.00;36.90;;;;;;6224785;27;81598;-58
2024/01/07 06:55:25;;;;;;;2.50;1.88;;;22.90;36.70;;;;;;6221283;27;81087;-59
2024/01/07 06:58:25;;;;;;;2.42;1.90;;;23.00;36.90;;;;;;6228810;27;80520;-59
2024/01/07 07:01:26;;;;;;;6.20;1.85;;;22.90;37.50;;;;;;6231273;27;80795;-59
2024/01/07 07:04:26;;;;;;;1.98;1.75;;;23.00;37.50;;;;;;6225689;27;80241;-56
2024/01/07 07:07:27;;;;;;;5.28;1.90;;;22.90;37.40;;;;;;6227887;27;80585;-56
2024/01/07 07:10:27;;;;;;;4.78;1.88;;;22.90;37.50;;;;;;6225549;27;80588;-57
2024/01/07 07:13:28;;;;;;;3.22;1.92;;;22.90;37.70;;;;;;6215539;27;86033;-56
2024/01/07 07:16:28;;;;;;;1.85;1.33;;;22.90;37.60;;;;;;6222639;27;81554;-59
2024/01/07 07:19:29;;;;;;;1.90;1.55;;;22.90;37.50;;;;;;6221767;27;80946;-61
2024/01/07 07:22:29;;;;;;;2.20;1.50;;;22.80;37.50;;;;;;6224831;27;80267;-61
2024/01/07 07:25:30;;;;;;;5.88;1.92;;;22.80;37.60;;;;;;6227395;27;80632;-63
2024/01/07 07:28:30;;;;;;;2.22;1.75;;;22.80;37.70;;;;;;6228881;27;80157;-62
2024/01/07 07:31:31;;;;;;;3.88;1.67;;;22.80;37.90;;;;;;6224777;27;82960;-61
2024/01/07 07:34:31;;;;;;;2.20;1.58;;;22.80;38.10;;;;;;6219537;27;80744;-61
2024/01/07 07:37:32;;;;;;;1.60;1.48;;;22.80;38.10;;;;;;6222329;27;80688;-56
2024/01/07 07:40:32;;;;;;;4.97;1.77;;;22.80;38.50;;;;;;6223546;27;80776;-59
2024/01/07 07:43:33;;;;;;;12.93;1.75;;;22.80;38.70;;;;;;6212351;27;80514;-60
2024/01/07 07:46:33;;;;;;;13.40;2.10;;;22.80;39.50;;;;;;6224048;27;80120;-58
2024/01/07 07:49:35;;;;;;;1.58;1.08;;;22.90;39.50;;;;;;6221640;27;82786;-59
2024/01/07 07:52:35;;;;;;;1.75;1.45;;;22.90;39.10;;;;;;6225371;27;80836;-58
2024/01/07 07:55:36;;;;;;;3.65;1.80;;;22.90;39.20;;;;;;6207121;27;82254;-64
2024/01/07 07:58:36;;;;;;;3.63;2.08;;;22.90;39.00;;;;;;6224861;27;81156;-62
2024/01/07 08:01:37;;;;;;;1.48;1.25;;;22.90;39.50;;;;;;6224033;27;80525;-63
2024/01/07 08:04:41;;;;;;;12.73;1.80;;;22.90;39.70;;;;;;6226003;27;81326;-66
2024/01/07 08:07:41;;;;;;;5.43;2.00;;;23.00;40.10;;;;;;6226409;27;80692;-62
2024/01/07 08:10:42;;;;;;;9.80;1.85;;;23.00;40.10;;;;;;6176371;27;1168890;-66
2024/01/07 08:13:42;;;;;;;5.68;1.60;;;23.00;40.10;;;;;;6214938;27;80893;-48
2024/01/07 08:16:43;;;;;;;8.85;1.85;;;23.00;40.40;;;;;;6224637;27;81466;-48
2024/01/07 08:19:43;;;;;;;6.57;1.67;;;23.00;40.10;;;;;;6215922;27;82746;-49
2024/01/07 08:22:44;;;;;;;2.72;1.83;;;23.00;40.20;;;;;;6215381;27;86400;-49
2024/01/07 08:25:45;;;;;;;7.53;1.60;;;23.00;39.90;;;;;;6224692;27;80223;-48
2024/01/07 08:28:45;;;;;;;4.75;1.80;;;23.10;39.50;;;;;;6226367;27;80680;-51
2024/01/07 08:31:46;;;;;;;3.97;1.55;;;23.10;39.20;;;;;;6226833;27;80340;-59
2024/01/07 08:34:46;;;;;;;4.88;2.08;;;23.10;38.80;;;;;;6226026;27;80526;-53
2024/01/07 08:37:47;;;;;;;2.78;1.85;;;23.20;38.90;;;;;;6226590;27;83129;-55
2024/01/07 08:40:48;;;;;;;5.18;2.00;;;23.20;39.20;;;;;;6222013;27;80686;-58
2024/01/07 08:43:48;;;;;;;4.28;1.52;;;23.30;39.60;;;;;;6226303;27;80582;-61
2024/01/07 08:46:48;;;;;;;4.75;1.90;;;23.30;39.30;;;;;;6225731;27;81386;-60
2024/01/07 08:49:49;;;;;;;6.03;1.88;;;23.40;39.40;;;;;;6227208;27;81477;-59
2024/01/07 08:52:50;;;;;;;4.03;1.98;;;23.40;39.50;;;;;;6224447;27;80691;-59
2024/01/07 08:55:50;;;;;;;4.93;1.75;;;23.40;39.50;;;;;;6226125;27;80283;-60
2024/01/07 08:58:52;;;;;;;5.95;1.90;;;23.50;39.40;;;;;;6227096;27;80903;-59
2024/01/07 09:01:52;;;;;;;2.72;1.90;;;23.50;39.60;;;;;;6224998;27;80979;-61
2024/01/07 09:04:53;;;;;;;3.03;1.52;;;23.50;39.50;;;;;;6213032;27;84640;-61
2024/01/07 09:07:53;;;;;;;5.30;1.77;;;23.50;39.60;;;;;;6226773;27;80659;-59
2024/01/07 09:10:54;;;;;;;5.25;1.70;;;23.50;39.20;;;;;;6223348;27;82945;-53
2024/01/07 09:13:54;;;;;;;3.15;1.67;;;23.50;39.20;;;;;;6206001;27;84662;-54
2024/01/07 09:16:55;;;;;;;7.38;2.08;;;23.50;39.00;;;;;;6221338;27;83117;-55
2024/01/07 09:19:55;;;;;;;4.25;2.38;;;23.50;38.60;;;;;;6220560;27;81110;-57
2024/01/07 09:22:56;;;;;;;3.17;1.85;;;23.60;38.50;;;;;;6220142;27;81069;-59
2024/01/07 09:25:56;;;;;;;5.32;2.17;;;23.50;38.40;;;;;;6219066;27;84335;-54
2024/01/07 09:28:57;;;;;;;3.25;1.85;;;23.60;38.60;;;;;;6224562;27;80180;-52
2024/01/07 09:31:57;;;;;;;3.67;2.47;;;23.60;38.40;;;;;;6220852;27;80569;-51
2024/01/07 09:34:58;;;;;;;2.88;2.17;;;23.60;38.50;;;;;;6225970;27;80540;-54
2024/01/07 09:37:58;;;;;;;2.58;2.13;;;23.60;38.40;;;;;;6225226;27;80878;-51
2024/01/07 09:40:59;;;;;;;3.55;2.22;;;23.60;38.00;;;;;;6222142;27;80928;-57
2024/01/07 09:43:59;;;;;;;3.30;2.20;;;23.60;38.20;;;;;;6223126;27;82329;-55
2024/01/07 09:47:00;;;;;;;3.60;2.28;;;23.60;37.70;;;;;;6214322;27;80339;-57
2024/01/07 09:50:00;;;;;;;3.92;2.47;;;23.60;38.10;;;;;;6216478;27;80481;-58
2024/01/07 09:53:02;;;;;;;2.70;2.00;;;23.60;39.00;;;;;;6208067;27;81925;-56
2024/01/07 09:56:02;;;;;;;5.03;2.22;;;23.60;38.40;;;;;;6224209;27;82024;-62
2024/01/07 09:59:03;;;;;;;4.00;2.42;;;23.60;38.40;;;;;;6226826;27;81131;-60
2024/01/07 10:02:03;;;;;;;3.40;2.42;;;23.70;38.90;;;;;;6223191;27;80906;-60
2024/01/07 10:05:04;;;;;;;5.20;2.38;;;23.70;39.30;;;;;;6224325;27;81809;-60
2024/01/07 10:08:04;;;;;;;3.33;2.47;;;23.70;39.90;;;;;;6223416;27;81337;-54
2024/01/07 10:11:05;;;;;;;4.05;2.90;;;23.70;40.50;;;;;;6223305;27;80249;-58
2024/01/07 10:14:05;;;;;;;3.85;2.53;;;23.70;40.80;;;;;;6225491;27;81973;-55
2024/01/07 10:17:06;;;;;;;2.92;2.08;;;23.70;41.10;;;;;;6226839;27;80421;-56
2024/01/07 10:20:09;;;;;;;4.25;2.67;;;23.60;41.50;;;;;;6220004;27;83282;-61
2024/01/07 10:23:10;;;;;;;5.57;2.70;;;23.70;42.00;;;;;;6220700;27;81443;-58
2024/01/07 10:26:10;;;;;;;2.88;2.17;;;23.60;42.00;;;;;;6225829;27;82277;-58
2024/01/07 10:29:11;;;;;;;4.40;2.67;;;23.60;42.30;;;;;;6226549;27;80654;-59
2024/01/07 10:32:11;;;;;;;3.78;2.25;;;23.60;42.40;;;;;;6224618;27;80807;-60
2024/01/07 10:35:12;;;;;;;3.85;2.55;;;23.60;42.70;;;;;;6223965;27;80583;-58
2024/01/07 10:38:12;;;;;;;5.25;2.45;;;23.50;42.70;;;;;;6218136;27;80186;-58
2024/01/07 10:41:14;;;;;;;4.90;3.10;;;23.50;42.70;;;;;;6223077;27;80362;-58
2024/01/07 10:44:15;;;;;;;4.18;2.90;;;23.40;43.20;;;;;;6226370;27;80762;-54
2024/01/07 10:47:15;;;;;;;10.10;3.20;;;23.40;43.70;;;;;;6225279;27;82969;-55
2024/01/07 10:50:17;;;;;;;6.65;2.70;;;23.40;43.60;;;;;;6224951;27;82852;-51
2024/01/07 10:53:18;;;;;;;4.50;2.83;;;23.40;43.80;;;;;;6225273;27;80947;-53
2024/01/07 10:56:19;;;;;;;8.55;3.10;;;23.40;43.70;;;;;;6225178;27;81150;-49
2024/01/07 10:59:19;;;;;;;4.63;3.17;;;23.40;43.30;;;;;;6223896;27;81344;-58
2024/01/07 11:02:20;;;;;;;4.97;3.05;;;23.30;43.60;;;;;;6213667;27;80431;-50
2024/01/07 11:05:20;;;;;;;6.65;3.22;;;23.30;43.40;;;;;;6224315;27;82054;-59
2024/01/07 11:08:22;;;;;;;4.15;3.05;;;23.30;43.30;;;;;;6224439;27;80402;-57
2024/01/07 11:11:23;;;;;;;4.80;3.00;;;23.30;43.60;;;;;;6222759;27;81533;-58
2024/01/07 11:14:24;;;;;;;5.03;3.15;;;23.30;43.50;;;;;;6224987;28;88127;-57
2024/01/07 11:17:24;;;;;;;6.20;3.03;;;23.20;43.60;;;;;;6224383;27;80604;-68
2024/01/07 11:20:26;;;;;;;4.93;2.88;;;23.20;43.80;;;;;;6225481;27;80674;-66
2024/01/07 11:23:30;;;;;;;12.07;3.38;;;23.20;44.30;;;;;;6220989;27;81407;-66
2024/01/07 11:26:30;;;;;;;12.52;3.33;;;23.10;44.40;;;;;;6222051;27;81186;-69
2024/01/07 11:29:31;;;;;;;10.65;3.20;;;23.10;43.90;;;;;;6224477;27;80773;-65
2024/01/07 11:32:31;;;;;;;7.30;3.25;;;23.10;44.30;;;;;;6204690;27;86808;-66
2024/01/07 11:35:32;;;;;;;10.32;3.60;;;23.10;44.30;;;;;;6211974;27;80959;-48
2024/01/07 11:38:32;;;;;;;5.22;3.63;;;23.10;43.70;;;;;;6225994;27;80896;-48
2024/01/07 11:41:33;;;;;;;6.07;3.90;;;23.10;43.40;;;;;;6217636;27;81828;-50
2024/01/07 11:44:33;;;;;;;7.00;3.60;;;23.00;43.10;;;;;;6227668;27;80483;-50
2024/01/07 11:47:34;;;;;;;6.43;3.85;;;22.90;43.20;;;;;;6229668;27;81358;-47
2024/01/07 11:50:34;;;;;;;6.85;3.10;;;22.90;44.40;;;;;;6228782;27;80511;-48
2024/01/07 11:53:35;;;;;;;4.72;3.40;;;22.90;44.80;;;;;;6229209;27;82790;-60
2024/01/07 11:56:37;;;;;;;7.00;3.70;;;22.90;45.40;;;;;;6226242;27;80931;-67
2024/01/07 11:59:38;;;;;;;6.53;3.60;;;22.90;45.90;;;;;;6228758;27;80404;-65
2024/01/07 12:02:39;;;;;;;7.95;3.88;;;22.90;46.20;;;;;;6226685;27;82624;-66
2024/01/07 12:05:40;;;;;;;7.55;4.13;;;22.90;46.40;;;;;;6229083;27;80726;-66
2024/01/07 12:08:41;;;;;;;5.28;3.58;;;22.90;46.80;;;;;;6228246;27;80402;-66
2024/01/07 12:11:41;;;;;;;7.10;3.60;;;22.90;47.40;;;;;;6224527;27;81543;-67
2024/01/07 12:14:42;;;;;;;5.45;4.18;;;22.90;47.70;;;;;;6226527;27;80921;-68
2024/01/07 12:17:42;;;;;;;9.93;3.92;;;22.90;47.30;;;;;;6225020;27;81514;-68
2024/01/07 12:20:43;;;;;;;7.72;4.32;;;22.90;48.20;;;;;;6229334;27;80717;-66
2024/01/07 12:23:43;;;;;;;8.85;3.78;;;22.90;47.70;;;;;;6229021;27;83891;-64
2024/01/07 12:26:44;;;;;;;7.95;4.18;;;23.00;47.80;;;;;;6216124;27;80447;-69
2024/01/07 12:29:45;;;;;;;6.95;4.07;;;23.00;47.20;;;;;;6226804;27;80648;-68
2024/01/07 12:32:45;;;;;;;10.13;3.72;;;23.00;47.00;;;;;;6216997;27;80866;-66
2024/01/07 12:35:46;;;;;;;6.57;3.65;;;23.10;47.60;;;;;;6225902;27;80696;-65
2024/01/07 12:38:47;;;;;;;6.50;3.90;;;23.10;47.80;;;;;;6223920;27;81309;-67
2024/01/07 12:41:48;;;;;;;6.55;4.13;;;23.10;48.60;;;;;;6224457;27;80363;-68
2024/01/07 12:44:49;;;;;;;5.13;3.60;;;23.10;48.80;;;;;;6221357;27;80578;-67
2024/01/07 12:47:49;;;;;;;10.98;3.83;;;23.20;49.20;;;;;;6220996;28;83863;-65
2024/01/07 12:50:50;;;;;;;6.10;3.88;;;23.20;49.70;;;;;;6213803;27;80532;-62
2024/01/07 12:53:50;;;;;;;6.90;3.95;;;23.20;50.10;;;;;;6225531;27;80243;-58
2024/01/07 12:56:51;;;;;;;6.95;3.72;;;23.20;50.30;;;;;;6225411;27;83719;-54
2024/01/07 12:59:52;;;;;;;6.28;3.40;;;23.20;50.10;;;;;;6219126;27;80558;-61
2024/01/07 13:02:52;;;;;;;6.53;4.20;;;23.20;49.80;;;;;;6215322;27;80378;-60
2024/01/07 13:05:53;;;;;;;5.90;3.50;;;23.30;49.30;;;;;;6226817;27;80344;-60
2024/01/07 13:08:53;;;;;;;5.68;4.00;;;23.30;49.10;;;;;;6221967;27;80240;-67
2024/01/07 13:11:54;;;;;;;7.10;4.10;;;23.30;48.70;;;;;;6225108;27;81394;-68
2024/01/07 13:14:54;;;;;;;7.05;3.83;;;23.30;48.80;;;;;;6220347;27;80872;-65
2024/01/07 13:17:55;;;;;;;6.35;4.28;;;23.30;48.40;;;;;;6216826;27;82426;-70
2024/01/07 13:20:55;;;;;;;7.85;3.72;;;23.30;48.60;;;;;;6225022;27;80371;-66
2024/01/07 13:23:59;;;;;;;9.93;4.38;;;23.30;48.00;;;;;;6221689;28;82310;-63
2024/01/07 13:27:00;;;;;;;9.30;4.70;;;23.30;48.70;;;;;;6219191;27;80594;-64
2024/01/07 13:30:00;;;;;;;6.97;4.47;;;23.30;47.70;;;;;;6221820;28;81746;-65
2024/01/07 13:33:02;;;;;;;12.27;4.30;;;23.40;47.50;;;;;;6213815;27;81073;-64
2024/01/07 13:36:08;;;;;;;10.55;4.10;;;23.40;47.20;;;;;;6220228;27;80485;-63
2024/01/07 13:39:09;;;;;;;;;;;23.40;47.10;;;;;;6220408;27;80959;-64
2024/01/07 13:42:09;;;;;;;7.22;4.40;;;23.40;46.90;;;;;;6228589;28;80186;-64
2024/01/07 13:45:11;;;;;;;7.25;4.53;;;23.50;46.60;;;;;;6221760;27;82533;-62
2024/01/07 13:48:11;;;;;;;9.32;4.43;;;23.50;46.40;;;;;;6219177;27;81423;-62
2024/01/07 13:51:12;;;;;;;7.55;4.97;;;23.50;46.30;;;;;;6217148;28;80291;-63
2024/01/07 13:54:14;;;;;;;7.50;4.85;;;23.50;46.60;;;;;;6219027;27;81211;-63
2024/01/07 13:57:14;;;;;;;17.83;6.00;;;23.50;46.50;;;;;;6221245;27;82474;-61
2024/01/07 14:00:18;;;;;;;6.65;4.13;;;23.60;46.60;;;;;;6216496;27;80896;-64
2024/01/07 14:03:20;;;;;;;13.60;6.15;;;23.60;46.60;;;;;;6216571;27;80432;-61
2024/01/07 14:06:21;;;;;;;13.65;5.82;;;23.50;46.40;;;;;;6217532;27;82649;-65
2024/01/07 14:09:21;;;;;;;8.88;5.65;;;23.60;46.80;;;;;;6220374;27;82202;-63
2024/01/07 14:12:22;;;;;;;10.18;5.90;;;23.60;46.80;;;;;;6217811;28;81062;-66
2024/01/07 14:15:22;;;;;;;11.98;5.57;;;23.60;46.40;;;;;;6216434;27;82278;-63
2024/01/07 14:18:23;;;;;;;11.48;5.68;;;23.60;46.40;;;;;;6217412;28;81146;-66
2024/01/07 14:21:25;;;;;;;13.50;5.28;;;23.60;47.10;;;;;;6219504;27;80469;-66
2024/01/07 14:24:25;;;;;;;10.10;5.38;;;23.60;46.70;;;;;;6217661;28;81013;-65
2024/01/07 14:27:27;;;;;;;15.73;5.38;;;23.60;46.40;;;;;;6221086;27;80593;-64
2024/01/07 14:30:27;;;;;;;9.90;6.25;;;23.60;46.50;;;;;;6220026;28;80809;-64
2024/01/07 14:33:28;;;;;;;13.20;5.88;;;23.70;47.00;;;;;;6215016;28;80645;-66
2024/01/07 14:36:28;;;;;;;8.68;6.00;;;23.60;46.40;;;;;;6219241;27;80615;-67
2024/01/07 14:39:29;;;;;;;12.65;6.40;;;23.60;46.50;;;;;;6218413;27;80956;-65
2024/01/07 14:42:29;;;;;;;12.20;6.55;;;23.70;45.90;;;;;;6210244;27;80282;-65
2024/01/07 14:45:30;;;;;;;13.15;6.45;;;23.60;46.00;;;;;;6219868;27;82040;-63
2024/01/07 14:48:30;;;;;;;14.10;6.63;;;23.60;46.00;;;;;;6217876;27;80700;-63
2024/01/07 14:51:31;;;;;;;9.27;5.57;;;23.70;46.10;;;;;;6217281;27;81083;-64
2024/01/07 14:54:32;;;;;;;15.07;6.60;;;23.60;45.90;;;;;;6214539;28;80482;-65
2024/01/07 14:57:33;;;;;;;13.65;6.30;;;23.70;46.50;;;;;;6217799;28;81707;-52
2024/01/07 15:00:33;;;;;;;16.85;6.75;;;23.70;46.40;;;;;;6213336;27;81932;-57
2024/01/07 15:03:34;;;;;;;12.80;6.47;;;23.70;45.50;;;;;;6209337;28;82608;-55
2024/01/07 15:06:34;;;;;;;15.52;7.18;;;23.70;45.90;;;;;;6219378;28;80567;-53
2024/01/07 15:09:35;;;;;;;12.45;6.28;;;23.70;46.10;;;;;;6220158;28;81664;-56
2024/01/07 15:12:35;;;;;;;17.38;6.95;;;23.70;45.60;;;;;;6219010;27;82031;-54
2024/01/07 15:15:36;;;;;;;13.27;6.47;;;23.70;46.00;;;;;;6208063;27;80954;-47
2024/01/07 15:18:36;;;;;;;15.43;5.97;;;23.70;46.20;;;;;;6217078;27;80799;-48
2024/01/07 15:21:37;;;;;;;14.57;6.47;;;23.70;46.50;;;;;;6222671;27;81600;-52
2024/01/07 15:24:37;;;;;;;14.20;6.95;;;23.70;46.50;;;;;;6217605;28;80809;-51
2024/01/07 15:27:38;;;;;;;18.42;7.25;;;23.60;46.00;;;;;;6218417;27;82543;-51
2024/01/07 15:30:38;;;;;;;14.98;6.97;;;23.60;46.30;;;;;;6220639;28;80928;-53
2024/01/07 15:33:39;;;;;;;12.18;6.55;;;23.60;45.70;;;;;;6217773;27;81488;-51
2024/01/07 15:36:40;;;;;;;12.68;7.20;;;23.60;45.70;;;;;;6221677;27;80976;-55